x

Tanner Bank - 121nm West Of San Diego, Ca (46047) Wave Buoy

3:50 - Tue 28th Jun 2016 All times are PDT. -7 hours from GMT.

  • Sig Wave height 5.2ft
  • Swell Direction
  • Peak Period 9s
  • Average Period 8s
  • Wind
    7mph, 9mph gusts
  • Sea Temp 63°f
  • Air Temp 62°f
  • Sea Pressure 1013.8mb
  • Tanner Bank - 121nm West Of San Diego, Ca
  • Tanner Bank - 121nm West Of San Diego, Ca

More Historic Weather Station data

Upgrade to MSW Pro to gain access to the past 30 days of data for over 8000 Wavebouys and Weather Stations around the globe.

Join Pro

Comparision Forecast

View Surf forecast
   
mar. 06/28 3:50 5ft 9s 8s 7 9 mph 1013.8mb 63f 62f
2:50 5ft 8s 8s 4 7 mph 1014.8mb 63f 62f
1:50 5ft 8s 8s 7 9 mph 1014.4mb 63f 62f
12:50 5ft 8s 8s 7
mph
1015mb 62f 61f
11:50 5ft 8s 8s 4
mph
1015.6mb 62f 61f
10:50 5ft 9s 8s 7 9 mph 1015.6mb 62f 60f
9:50 4.5ft 8s 8s 4 7 mph 1015.7mb 62f 60f
8:50 5ft 14s 8s 4
mph
1015.3mb 62f 59f
7:50 5ft 9s 8s 2 4 mph 1014.5mb 61f 59f
6:50 6ft 8s 8s 7 9 mph 1014mb 62f 59f
5:50 5ft 8s 8s 7 11 mph 1013.6mb 61f 59f
4:50 5.5ft 8s 8s 7 9 mph 1013.2mb 61f 59f
3:50 5.5ft 8s 8s 7 9 mph 1013.1mb 61f 59f
2:50 5ft 9s 8s 4 7 mph 1013.4mb 62f 59f
1:50 6ft 8s 8s 7 9 mph 1013.6mb 61f 58f
12:50 6ft 9s 8s 2 7 mph 1013.7mb 61f 58f
lun. 06/27 11:50 6ft 15s 8s 2 4 mph 1013.6mb 62f 58f
10:50 5ft 15s 8s 2
mph
1013.8mb 62f 59f
9:50 5.5ft 8s 7s 4 7 mph 1013.5mb 62f 60f
8:50 5.5ft 8s 7s 2 4 mph 1013.3mb 62f 60f
7:50 5ft 15s 7s 2 4 mph 1013.1mb 63f 61f
6:50 6ft 8s 8s 2 4 mph 1012.8mb 64f 62f
5:50 6.5ft 8s 8s 4
mph
1012.8mb 63f 62f
4:50 6ft 8s 8s 4 7 mph 1012.8mb 63f 62f
3:50 6ft 8s 8s 4 7 mph 1013.1mb 63f 62f
2:50 6ft 8s 8s 4 7 mph 1013.4mb 63f 62f
1:50 6ft 8s 8s 4 7 mph 1013.3mb 62f 62f
12:50 6ft 9s 8s 4 7 mph 1013.7mb 62f 61f
11:50 6.5ft 9s 8s 9 11 mph 1014.1mb 62f 62f
10:50 6ft 9s 8s 7 9 mph 1013.5mb 62f 62f
9:50 6ft 9s 8s 7 11 mph 1013.2mb 61f 61f
8:50 6ft 15s 8s 7 9 mph 1013.2mb 61f 61f
7:50 6ft 8s 8s 4 7 mph 1012.9mb 61f 61f
6:50 6ft 16s 8s 2 4 mph 1012.5mb 61f 60f
5:50 5.5ft 9s 7s 2
mph
1012.2mb 60f 60f
4:50 6ft 8s 8s 2
mph
1011.9mb 61f 60f
3:50 6ft 16s 8s  -  2 mph 1011.7mb 60f 60f
2:50 6ft 9s 7s 2
mph
1011.6mb 60f 60f
1:50 6ft 16s 8s 7
mph
1012.2mb 61f 60f
12:50 6ft 9s 7s 9 11 mph 1012.3mb 61f 60f
dim. 06/26 11:50 6ft 16s 8s 11 13 mph 1012.6mb 61f 60f
10:50 6ft 16s 8s 11 13 mph 1012.8mb 61f 60f
8:50 6ft 17s 8s 11 13 mph 1012.6mb 62f 60f
7:50 6ft 17s 8s 11 13 mph 1012.2mb 63f 61f
6:50 5.5ft 16s 7s 11 13 mph 1012mb 63f 61f
5:50 6ft 17s 8s 7 9 mph 1012.1mb 62f 61f
4:50 6ft 17s 8s 9 11 mph 1012.1mb 62f 60f
3:50 7ft 17s 8s 7 9 mph 1012.3mb 63f 61f
2:50 7ft 17s 8s 7 9 mph 1012.7mb 65f 61f
1:50 7ft 8s 8s 2 4 mph 1013.1mb 63f 61f
12:50 7ft 17s 8s 2 4 mph 1013.1mb 62f 61f
11:50 7ft 17s 8s 4
mph
1013.1mb 61f 61f
10:50 7ft 17s 8s 2 4 mph 1013mb 61f 60f
9:50 6.5ft 17s 8s 4 7 mph 1012.8mb 60f 60f
8:50 6.5ft 17s 8s 2 4 mph 1012.3mb 60f 60f
7:50 6ft 17s 7s 7 9 mph 1011.8mb 60f 60f
6:50 7.5ft 8s 8s 9 11 mph 1011.2mb 60f 60f
5:50 7ft 17s 7s 11 16 mph 1010.8mb 60f 59f
4:50 7.5ft 17s 8s 11 13 mph 1010.6mb 60f 59f
3:50 6.5ft 17s 7s 11 13 mph 1010.5mb 60f 59f
2:50 7ft 9s 7s 16 18 mph 1010.5mb 61f 60f
12:50 7ft 15s 7s 13 16 mph 1011.5mb 61f 60f
sam. 06/25 11:50 7.5ft 17s 7s 13 18 mph 1011.8mb 61f 61f
10:50 7ft 16s 7s 13 16 mph 1011.7mb 61f 61f
9:50 7.5ft 17s 7s 13 18 mph 1011.1mb 61f 61f
8:50 8ft 17s 8s 16 20 mph 1010.6mb 61f 61f
7:50 7ft 17s 7s 16 20 mph 1010.6mb 61f 61f
6:50 6ft 15s 7s 18 20 mph 1010.4mb 61f 62f
5:50 7.5ft 16s 8s 18 20 mph 1010.5mb 60f 62f
4:50 8ft 16s 8s 16 20 mph 1010.9mb 60f 61f
3:50 9ft 17s 8s 16 18 mph 1011.2mb 60f 60f
2:50 8.5ft 19s 8s 16 18 mph 1012mb 60f 60f
1:50 7.5ft 17s 8s 16 20 mph 1011.9mb 60f 60f
12:50 9ft 17s 8s 16 18 mph 1012.2mb 60f 59f
11:50 8ft 19s 8s 16 18 mph 1012.1mb 60f 59f
10:50 8ft 16s 8s 18 20 mph 1012.1mb 60f 59f
9:50 7.5ft 16s 7s 18 20 mph 1012.3mb 60f 59f
8:50 8ft 16s 7s 18 22 mph 1012.2mb 60f 59f
7:50 8ft 16s 7s 18 20 mph 1011.8mb 60f 59f
6:50 8ft 16s 7s 20 22 mph 1011.4mb 60f 59f
5:50 8ft 16s 7s 18 22 mph 1011.2mb 60f 59f
4:50 9ft 16s 7s 20 25 mph 1010.9mb 60f 60f
3:50 9ft 17s 7s 22 27 mph 1010.7mb 60f 60f
2:50 9ft 17s 8s 20 27 mph 1011mb 60f 61f
1:50 8.5ft 8s 7s 20 22 mph 1011.3mb 60f 61f
12:50 9ft 17s 7s 20 25 mph 1011.8mb 60f 61f